createdAt,value
2019-02-04T00:02:03.208Z,85.82
2019-02-04T00:04:32.108Z,85.99
2019-02-04T00:07:00.984Z,85.82
2019-02-04T00:09:30.245Z,85.89
2019-02-04T00:11:59.318Z,85.73
2019-02-04T00:14:28.382Z,85.62
2019-02-04T00:16:57.204Z,85.52
2019-02-04T00:19:26.112Z,85.47
2019-02-04T00:21:55.048Z,84.70
2019-02-04T00:24:23.993Z,84.65
2019-02-04T00:26:53.316Z,85.08
2019-02-04T00:29:22.118Z,84.62
2019-02-04T00:31:51.180Z,84.42
2019-02-04T00:34:20.250Z,84.71
2019-02-04T00:36:49.315Z,84.63
2019-02-04T00:39:18.341Z,84.12
2019-02-04T00:41:47.185Z,84.50
2019-02-04T00:44:16.039Z,84.43
2019-02-04T00:46:52.080Z,84.98
2019-02-04T00:49:15.438Z,85.13
2019-02-04T00:51:44.268Z,84.77
2019-02-04T00:54:13.442Z,85.10
2019-02-04T00:56:42.331Z,84.86
2019-02-04T00:59:11.482Z,84.87
2019-02-04T01:01:40.713Z,84.66
2019-02-04T01:04:09.884Z,84.76
2019-02-04T01:06:38.779Z,84.40
2019-02-04T01:09:09.925Z,85.51
2019-02-04T01:11:38.780Z,84.94
2019-02-04T01:14:07.959Z,84.98
2019-02-04T01:16:37.023Z,84.70
2019-02-04T01:19:06.272Z,85.18
2019-02-04T01:21:35.507Z,85.39
2019-02-04T01:24:04.624Z,85.00
2019-02-04T01:26:33.498Z,84.66
2019-02-04T01:29:02.334Z,84.42
2019-02-04T01:31:31.298Z,85.05
2019-02-04T01:34:10.313Z,85.68
2019-02-04T01:36:39.473Z,85.05
2019-02-04T01:39:09.732Z,85.52
2019-02-04T01:41:38.834Z,85.06
2019-02-04T01:44:08.059Z,85.27
2019-02-04T01:46:36.866Z,85.19
2019-02-04T01:49:05.790Z,85.33
2019-02-04T01:51:34.709Z,84.91
2019-02-04T01:54:03.645Z,84.63
2019-02-04T01:56:32.476Z,85.25
2019-02-04T01:59:01.318Z,85.35
2019-02-04T02:01:30.159Z,85.61
2019-02-04T02:03:59.269Z,85.50
2019-02-04T02:06:28.376Z,85.06
2019-02-04T02:08:57.150Z,84.97
2019-02-04T02:11:26.003Z,86.12
2019-02-04T02:13:54.816Z,85.72
2019-02-04T02:16:23.762Z,86.20
2019-02-04T02:18:52.619Z,86.10
2019-02-04T02:21:21.657Z,85.13
2019-02-04T02:23:50.450Z,85.75
2019-02-04T02:26:19.481Z,85.71
2019-02-04T02:28:48.576Z,85.73
2019-02-04T02:31:17.468Z,86.51
2019-02-04T02:33:46.608Z,85.77
2019-02-04T02:36:15.444Z,85.32
2019-02-04T02:38:44.257Z,85.78
2019-02-04T02:41:13.491Z,85.46
2019-02-04T02:43:42.789Z,85.66
2019-02-04T02:46:11.579Z,85.33
2019-02-04T02:48:40.754Z,85.72
2019-02-04T02:51:09.505Z,86.69
2019-02-04T02:53:38.770Z,86.28
2019-02-04T02:56:07.711Z,86.15
2019-02-04T02:58:36.678Z,87.36
2019-02-04T03:01:05.552Z,87.22
2019-02-04T03:03:34.467Z,86.62
2019-02-04T03:06:03.432Z,86.46
2019-02-04T03:08:32.876Z,87.08
2019-02-04T03:11:01.752Z,87.83
2019-02-04T03:13:30.627Z,87.07
2019-02-04T03:15:59.485Z,87.89
2019-02-04T03:18:28.410Z,88.21
2019-02-04T03:20:57.197Z,89.38
2019-02-04T03:23:26.046Z,88.72
2019-02-04T03:25:54.872Z,89.38
2019-02-04T03:28:24.018Z,89.80
2019-02-04T03:30:53.288Z,90.24
2019-02-04T03:33:22.705Z,90.12
2019-02-04T03:35:51.641Z,90.19
2019-02-04T03:38:21.119Z,90.15
2019-02-04T03:40:50.411Z,89.57
2019-02-04T03:43:19.266Z,89.96
2019-02-04T03:45:48.088Z,90.81
2019-02-04T03:48:17.308Z,90.57
2019-02-04T03:50:46.509Z,90.83
2019-02-04T03:53:15.886Z,91.08
2019-02-04T03:55:44.723Z,91.21
2019-02-04T03:58:13.789Z,91.10
2019-02-04T04:00:42.956Z,91.13
2019-02-04T04:03:11.935Z,90.90
2019-02-04T04:05:40.834Z,91.12
2019-02-04T04:08:09.777Z,91.25
2019-02-04T04:10:38.595Z,91.38
2019-02-04T04:13:07.837Z,91.42
2019-02-04T04:15:36.829Z,91.42
2019-02-04T04:18:15.441Z,91.39
2019-02-04T04:20:36.755Z,91.39
2019-02-04T04:23:05.885Z,91.37
2019-02-04T04:25:34.706Z,91.48
2019-02-04T04:28:03.728Z,91.56
2019-02-04T04:30:32.632Z,91.53
2019-02-04T04:33:01.746Z,91.65
2019-02-04T04:35:30.547Z,91.66
2019-02-04T04:37:59.940Z,91.82
2019-02-04T04:40:28.815Z,91.90
2019-02-04T04:42:58.357Z,91.91
2019-02-04T04:45:28.073Z,91.86
2019-02-04T04:47:57.448Z,91.88
2019-02-04T04:50:26.402Z,92.08
2019-02-04T04:52:55.303Z,92.15
2019-02-04T04:55:25.753Z,92.13
2019-02-04T04:57:55.313Z,92.10
2019-02-04T05:00:27.427Z,92.08
2019-02-04T05:02:56.435Z,92.10
2019-02-04T05:05:25.328Z,92.12
2019-02-04T05:07:54.523Z,91.96
2019-02-04T05:10:23.484Z,92.21
2019-02-04T05:12:52.412Z,92.17
2019-02-04T05:15:23.767Z,92.19
2019-02-04T05:17:53.190Z,92.07
2019-02-04T05:20:22.939Z,92.11
2019-02-04T05:22:51.853Z,92.13
2019-02-04T05:25:20.888Z,92.18
2019-02-04T05:27:49.868Z,92.30
2019-02-04T05:30:20.577Z,92.33
2019-02-04T05:32:49.674Z,92.34
2019-02-04T05:35:18.642Z,92.37
2019-02-04T05:37:47.477Z,92.40
2019-02-04T05:40:16.928Z,92.40
2019-02-04T05:42:46.301Z,92.52
2019-02-04T05:45:16.653Z,92.49
2019-02-04T05:47:45.866Z,92.54
2019-02-04T05:50:17.397Z,92.59
2019-02-04T05:52:46.894Z,92.66
2019-02-04T05:55:16.848Z,92.61
2019-02-04T05:57:45.747Z,92.60
2019-02-04T06:00:22.108Z,92.56
2019-02-04T06:02:51.300Z,92.63
2019-02-04T06:05:22.711Z,92.65
2019-02-04T06:07:52.565Z,92.81
2019-02-04T06:10:21.442Z,92.72
2019-02-04T06:12:50.547Z,92.71
2019-02-04T06:15:19.432Z,92.76
2019-02-04T06:17:59.907Z,92.76
2019-02-04T06:20:29.012Z,92.82
2019-02-04T06:22:57.744Z,92.90
2019-02-04T06:25:26.731Z,92.87
2019-02-04T06:27:55.590Z,92.94
2019-02-04T06:30:24.529Z,92.91
2019-02-04T06:32:53.407Z,92.97
2019-02-04T06:35:22.492Z,93.12
2019-02-04T06:37:52.458Z,93.22
2019-02-04T06:40:21.401Z,93.10
2019-02-04T06:42:50.605Z,93.03
2019-02-04T06:45:19.598Z,93.02
2019-02-04T06:47:48.515Z,92.89
2019-02-04T06:50:17.892Z,92.86
2019-02-04T06:52:46.905Z,92.92
2019-02-04T06:55:18.475Z,92.65
2019-02-04T06:57:47.442Z,92.66
2019-02-04T07:00:16.927Z,92.83
2019-02-04T07:02:46.259Z,92.73
2019-02-04T07:05:15.440Z,92.78
2019-02-04T07:07:44.278Z,92.72
2019-02-04T07:10:15.647Z,92.73
2019-02-04T07:12:44.707Z,92.62
2019-02-04T07:15:13.652Z,92.51
2019-02-04T07:17:42.669Z,92.39
2019-02-04T07:20:18.074Z,92.35
2019-02-04T07:22:46.942Z,92.21
2019-02-04T07:25:16.215Z,92.02
2019-02-04T07:27:46.213Z,91.87
2019-02-04T07:30:24.747Z,91.72
2019-02-04T07:32:54.185Z,91.57
2019-02-04T07:35:23.122Z,91.52
2019-02-04T07:37:52.042Z,91.43
2019-02-04T07:40:26.160Z,91.48
2019-02-04T07:42:58.274Z,91.38
2019-02-04T07:45:27.446Z,91.19
2019-02-04T07:47:56.320Z,90.93
2019-02-04T07:50:25.370Z,90.82
2019-02-04T07:53:06.529Z,90.84
2019-02-04T07:55:35.569Z,90.64
2019-02-04T07:58:04.505Z,90.55
2019-02-04T08:00:33.979Z,90.28
2019-02-04T08:03:03.207Z,90.28
2019-02-04T08:05:34.421Z,90.30
2019-02-04T08:08:03.458Z,89.98
2019-02-04T08:10:32.493Z,89.99
2019-02-04T08:13:02.238Z,89.92
2019-02-04T08:15:33.841Z,89.42
2019-02-04T08:18:02.847Z,89.37
2019-02-04T08:20:32.043Z,89.45
2019-02-04T08:23:00.985Z,88.81
2019-02-04T08:25:29.848Z,88.95
2019-02-04T08:28:00.338Z,88.89
2019-02-04T08:30:37.958Z,88.59
2019-02-04T08:33:06.376Z,88.22
2019-02-04T08:35:35.575Z,88.03
2019-02-04T08:38:04.517Z,87.65
2019-02-04T08:40:33.832Z,87.01
2019-02-04T08:43:02.878Z,87.06
2019-02-04T08:45:31.964Z,87.19
2019-02-04T08:48:01.097Z,86.75
2019-02-04T08:50:30.879Z,86.18
2019-02-04T08:53:02.834Z,86.39
2019-02-04T08:55:33.273Z,86.11
2019-02-04T08:58:07.635Z,85.42
2019-02-04T09:00:44.323Z,85.05
2019-02-04T09:03:16.203Z,85.27
2019-02-04T09:05:45.141Z,85.64
2019-02-04T09:08:14.287Z,85.07
2019-02-04T09:10:43.218Z,84.97
2019-02-04T09:13:12.383Z,85.01
2019-02-04T09:15:41.353Z,85.24
2019-02-04T09:18:10.508Z,84.94
2019-02-04T09:20:39.309Z,85.08
2019-02-04T09:23:08.351Z,84.60
2019-02-04T09:25:37.270Z,84.67
2019-02-04T09:28:06.255Z,84.33
2019-02-04T09:30:35.500Z,84.76
2019-02-04T09:33:04.391Z,84.35
2019-02-04T09:35:33.599Z,84.36
2019-02-04T09:38:02.439Z,83.24
2019-02-04T09:40:37.256Z,82.60
2019-02-04T09:43:06.928Z,82.86
2019-02-04T09:45:36.047Z,81.97
2019-02-04T09:48:06.417Z,81.63
2019-02-04T09:50:35.662Z,80.77
2019-02-04T09:53:04.921Z,80.14
2019-02-04T09:55:35.401Z,79.31
2019-02-04T09:58:04.469Z,78.58
2019-02-04T10:00:35.257Z,78.01
2019-02-04T10:03:04.344Z,78.86
2019-02-04T10:05:33.322Z,77.62
2019-02-04T10:08:02.694Z,77.80
2019-02-04T10:10:31.566Z,77.62
2019-02-04T10:13:00.872Z,77.08
2019-02-04T10:15:31.946Z,76.74
2019-02-04T10:18:00.903Z,76.13
2019-02-04T10:20:34.146Z,75.82
2019-02-04T10:23:00.686Z,75.36
2019-02-04T10:25:31.533Z,75.18
2019-02-04T10:28:00.409Z,74.91
2019-02-04T10:30:29.831Z,73.63
2019-02-04T10:32:58.717Z,73.89
2019-02-04T10:35:27.866Z,71.56
2019-02-04T10:37:57.329Z,71.73
2019-02-04T10:40:28.286Z,72.23
2019-02-04T10:43:00.207Z,71.41
2019-02-04T10:45:29.538Z,71.07
2019-02-04T10:47:58.794Z,70.14
2019-02-04T10:50:45.077Z,70.38
2019-02-04T10:53:04.478Z,70.32
2019-02-04T10:55:33.346Z,70.27
2019-02-04T10:58:02.448Z,70.03
2019-02-04T11:00:33.115Z,70.10
2019-02-04T11:03:02.440Z,69.40
2019-02-04T11:05:32.787Z,69.08
2019-02-04T11:08:01.770Z,69.09
2019-02-04T11:10:33.589Z,68.25
2019-02-04T11:13:03.216Z,68.09
2019-02-04T11:15:32.197Z,68.06
2019-02-04T11:18:01.738Z,67.71
2019-02-04T11:20:31.087Z,67.86
2019-02-04T11:23:00.809Z,67.16
2019-02-04T11:25:29.922Z,67.76
2019-02-04T11:27:58.901Z,67.75
2019-02-04T11:30:30.251Z,67.88
2019-02-04T11:32:59.336Z,68.12
2019-02-04T11:35:30.829Z,67.67
2019-02-04T11:37:59.674Z,67.90
2019-02-04T11:40:30.882Z,67.64
2019-02-04T11:43:00.146Z,68.22
2019-02-04T11:45:29.607Z,68.22
2019-02-04T11:47:58.640Z,68.73
2019-02-04T11:50:27.956Z,68.89
2019-02-04T11:52:57.014Z,69.20
2019-02-04T11:55:26.165Z,69.22
2019-02-04T11:57:55.200Z,69.68
2019-02-04T12:00:26.223Z,70.06
2019-02-04T12:02:55.848Z,70.24
2019-02-04T12:05:25.179Z,70.30
2019-02-04T12:07:54.630Z,70.10
2019-02-04T12:10:26.434Z,70.12
2019-02-04T12:12:55.674Z,70.18
2019-02-04T12:15:32.339Z,69.56
2019-02-04T12:18:01.644Z,69.98
2019-02-04T12:20:31.171Z,69.86
2019-02-04T12:23:03.784Z,70.18
2019-02-04T12:25:32.571Z,69.89
2019-02-04T12:28:01.512Z,69.51
2019-02-04T12:30:32.798Z,69.46
2019-02-04T12:33:02.234Z,69.09
2019-02-04T12:35:31.254Z,69.13
2019-02-04T12:38:00.480Z,69.25
2019-02-04T12:40:47.561Z,68.65
2019-02-04T12:43:16.579Z,68.17
2019-02-04T12:45:46.103Z,67.39
2019-02-04T12:48:15.549Z,67.13
2019-02-04T12:50:44.651Z,67.12
2019-02-04T12:53:14.042Z,67.43
2019-02-04T12:55:43.001Z,67.49
2019-02-04T12:58:12.005Z,67.02
2019-02-04T13:00:41.307Z,67.26
2019-02-04T13:03:12.407Z,67.75
2019-02-04T13:05:44.829Z,66.96
2019-02-04T13:08:13.846Z,66.97
2019-02-04T13:10:43.500Z,66.85
2019-02-04T13:13:14.712Z,66.13
2019-02-04T13:15:43.739Z,66.16
2019-02-04T13:18:12.919Z,66.58
2019-02-04T13:20:42.369Z,66.64
2019-02-04T13:23:11.251Z,66.11
2019-02-04T13:25:40.370Z,66.14
2019-02-04T13:28:12.849Z,66.51
2019-02-04T13:30:41.924Z,65.00
2019-02-04T13:33:10.862Z,65.64
2019-02-04T13:35:40.339Z,65.92
2019-02-04T13:38:09.972Z,65.82
2019-02-04T13:40:44.542Z,66.10
2019-02-04T13:43:13.222Z,65.72
2019-02-04T13:45:49.699Z,65.47
2019-02-04T13:48:45.166Z,64.96
2019-02-04T13:51:15.099Z,65.25
2019-02-04T13:53:50.975Z,65.21
2019-02-04T13:56:19.914Z,65.15
2019-02-04T13:58:48.756Z,65.06
2019-02-04T14:01:17.684Z,64.95
2019-02-04T14:03:48.413Z,65.03
2019-02-04T14:06:17.331Z,65.09
2019-02-04T14:08:46.626Z,65.20
2019-02-04T14:11:15.521Z,64.98
2019-02-04T14:13:44.425Z,65.12
2019-02-04T14:16:13.781Z,64.74
2019-02-04T14:18:42.563Z,65.15
2019-02-04T14:21:25.921Z,65.18
2019-02-04T14:23:55.337Z,65.01
2019-02-04T14:26:28.590Z,64.51
2019-02-04T14:28:56.266Z,64.81
2019-02-04T14:31:25.064Z,64.83
2019-02-04T14:33:54.127Z,65.31
2019-02-04T14:36:27.937Z,65.27
2019-02-04T14:38:57.435Z,65.37
2019-02-04T14:41:26.200Z,65.33
2019-02-04T14:44:28.620Z,65.55
2019-02-04T14:47:23.215Z,65.20
2019-02-04T14:50:17.192Z,64.59
2019-02-04T14:53:27.518Z,64.25
2019-02-04T14:56:35.581Z,64.51
2019-02-04T14:59:21.890Z,64.57
2019-02-04T15:02:44.093Z,63.96
2019-02-04T15:05:52.535Z,63.77
2019-02-04T15:08:59.265Z,64.40
2019-02-04T15:11:34.611Z,64.14
2019-02-04T15:14:36.273Z,63.71
2019-02-04T15:17:50.856Z,63.68
2019-02-04T15:21:04.142Z,63.05
2019-02-04T15:23:48.399Z,62.87
2019-02-04T15:26:52.917Z,62.84
2019-02-04T15:29:47.061Z,63.11
2019-02-04T15:33:06.562Z,63.36
2019-02-04T15:36:11.763Z,63.14
2019-02-04T15:39:14.147Z,63.17
2019-02-04T15:42:15.561Z,63.20
2019-02-04T15:45:22.571Z,63.00
2019-02-04T15:48:15.607Z,62.64
2019-02-04T15:51:20.995Z,62.71
2019-02-04T15:53:49.870Z,63.00
2019-02-04T15:56:19.300Z,63.13
2019-02-04T15:58:48.624Z,63.08
2019-02-04T16:01:17.547Z,63.03
2019-02-04T16:03:47.222Z,63.10
2019-02-04T16:06:16.380Z,63.41
2019-02-04T16:08:45.397Z,63.21
2019-02-04T16:11:14.451Z,63.73
2019-02-04T16:13:43.347Z,63.82
2019-02-04T16:16:12.218Z,63.52
2019-02-04T16:18:41.017Z,63.89
2019-02-04T16:21:09.884Z,63.91
2019-02-04T16:23:39.333Z,64.46
2019-02-04T16:26:10.367Z,64.54
2019-02-04T16:28:42.755Z,64.33
2019-02-04T16:31:10.511Z,64.58
2019-02-04T16:33:39.874Z,64.44
2019-02-04T16:36:09.057Z,64.84
2019-02-04T16:38:38.403Z,64.48
2019-02-04T16:41:07.559Z,64.40
2019-02-04T16:43:36.572Z,64.53
2019-02-04T16:46:05.632Z,64.64
2019-02-04T16:48:34.577Z,64.75
2019-02-04T16:51:11.612Z,65.02
2019-02-04T16:53:34.383Z,64.96
2019-02-04T16:56:03.259Z,64.54
2019-02-04T16:58:32.386Z,64.90
2019-02-04T17:01:01.144Z,64.86
2019-02-04T17:03:32.251Z,64.43
2019-02-04T17:06:01.616Z,64.82
2019-02-04T17:08:31.266Z,64.77
2019-02-04T17:11:00.153Z,64.75
2019-02-04T17:13:29.076Z,64.80
2019-02-04T17:15:58.120Z,65.03
2019-02-04T17:18:26.912Z,64.29
2019-02-04T17:20:55.799Z,63.95
2019-02-04T17:23:24.962Z,64.32
2019-02-04T17:25:54.199Z,64.03
2019-02-04T17:28:23.064Z,64.25
2019-02-04T17:30:53.010Z,64.41
2019-02-04T17:33:22.043Z,64.12
2019-02-04T17:35:51.188Z,63.98
2019-02-04T17:38:21.625Z,64.10
2019-02-04T17:40:50.546Z,64.23
2019-02-04T17:43:19.680Z,64.37
2019-02-04T17:45:48.590Z,64.16
2019-02-04T17:48:17.512Z,64.26
2019-02-04T17:50:46.699Z,64.51
2019-02-04T17:53:15.905Z,63.69
2019-02-04T17:55:44.815Z,63.94
2019-02-04T17:58:13.865Z,64.10
2019-02-04T18:00:49.427Z,63.79
2019-02-04T18:03:18.247Z,63.74
2019-02-04T18:05:47.603Z,63.98
2019-02-04T18:08:16.950Z,63.96
2019-02-04T18:10:46.434Z,63.99
2019-02-04T18:13:15.262Z,64.10
2019-02-04T18:15:44.331Z,63.97
2019-02-04T18:18:13.348Z,63.92
2019-02-04T18:20:42.699Z,64.09
2019-02-04T18:23:11.622Z,63.91
2019-02-04T18:25:40.837Z,61.32
2019-02-04T18:28:09.855Z,63.99
2019-02-04T18:30:38.744Z,63.82
2019-02-04T18:33:07.650Z,63.58
2019-02-04T18:35:37.215Z,63.21
2019-02-04T18:38:06.192Z,63.05
2019-02-04T18:40:35.087Z,62.56
2019-02-04T18:43:04.154Z,63.13
2019-02-04T18:45:33.202Z,63.40
2019-02-04T18:48:02.053Z,63.48
2019-02-04T18:50:31.374Z,63.46
2019-02-04T18:53:00.634Z,63.25
2019-02-04T18:55:32.039Z,63.49
2019-02-04T18:58:01.173Z,63.83
2019-02-04T19:00:30.682Z,64.26
2019-02-04T19:02:59.976Z,64.23
2019-02-04T19:05:29.154Z,64.58
2019-02-04T19:07:58.289Z,64.97
2019-02-04T19:10:27.454Z,65.67
2019-02-04T19:12:56.540Z,65.56
2019-02-04T19:15:25.452Z,65.83
2019-02-04T19:17:57.758Z,66.06
2019-02-04T19:20:26.984Z,66.56
2019-02-04T19:22:56.285Z,66.44
2019-02-04T19:25:25.275Z,66.80
2019-02-04T19:27:54.297Z,66.81
2019-02-04T19:30:26.195Z,67.07
2019-02-04T19:32:55.716Z,67.23
2019-02-04T19:35:24.573Z,67.73
2019-02-04T19:37:53.796Z,67.80
2019-02-04T19:40:22.667Z,68.58
2019-02-04T19:42:51.631Z,69.17
2019-02-04T19:45:20.901Z,69.21
2019-02-04T19:47:50.313Z,69.24
2019-02-04T19:50:24.961Z,69.35
2019-02-04T19:52:53.876Z,68.97
2019-02-04T19:55:27.592Z,68.30
2019-02-04T19:57:56.540Z,68.21
2019-02-04T20:00:25.760Z,68.22
2019-02-04T20:02:57.612Z,67.84
2019-02-04T20:05:26.713Z,68.04
2019-02-04T20:08:02.201Z,67.67
2019-02-04T20:10:33.268Z,67.99
2019-02-04T20:13:03.134Z,67.71
2019-02-04T20:15:32.370Z,67.97
2019-02-04T20:18:01.502Z,68.13
2019-02-04T20:20:30.862Z,67.75
2019-02-04T20:22:59.885Z,67.81
2019-02-04T20:25:29.875Z,67.36
2019-02-04T20:27:58.936Z,67.25
2019-02-04T20:30:29.920Z,67.55
2019-02-04T20:32:58.994Z,67.59
2019-02-04T20:35:27.918Z,67.34
2019-02-04T20:37:57.593Z,67.50
2019-02-04T20:40:26.883Z,67.70
2019-02-04T20:42:56.110Z,68.05
2019-02-04T20:45:25.527Z,68.30
2019-02-04T20:47:55.540Z,68.62
2019-02-04T20:50:29.394Z,68.73
2019-02-04T20:52:58.628Z,68.85
2019-02-04T20:55:27.566Z,69.09
2019-02-04T20:57:57.184Z,69.03
2019-02-04T21:00:27.929Z,69.25
2019-02-04T21:02:57.140Z,69.99
2019-02-04T21:05:26.372Z,70.20
2019-02-04T21:07:55.619Z,70.06
2019-02-04T21:10:25.089Z,69.50
2019-02-04T21:12:57.553Z,69.35
2019-02-04T21:15:26.730Z,69.07
2019-02-04T21:17:55.684Z,69.19
2019-02-04T21:20:25.668Z,69.46
2019-02-04T21:22:55.157Z,69.09
2019-02-04T21:25:24.295Z,68.93
2019-02-04T21:27:53.667Z,69.11
2019-02-04T21:30:27.420Z,69.12
2019-02-04T21:32:57.120Z,68.73
2019-02-04T21:35:26.448Z,69.01
2019-02-04T21:37:56.121Z,69.00
2019-02-04T21:40:25.100Z,69.17
2019-02-04T21:42:54.165Z,69.60
2019-02-04T21:45:23.215Z,70.11
2019-02-04T21:47:52.268Z,70.42
2019-02-04T21:50:23.248Z,70.61
2019-02-04T21:52:52.580Z,70.94
2019-02-04T21:55:22.635Z,71.31
2019-02-04T21:57:51.785Z,71.62
2019-02-04T22:00:25.689Z,71.79
2019-02-04T22:02:54.556Z,72.42
2019-02-04T22:05:25.054Z,72.28
2019-02-04T22:07:54.100Z,72.35
2019-02-04T22:10:24.215Z,72.26
2019-02-04T22:12:53.064Z,72.27
2019-02-04T22:15:22.015Z,72.11
2019-02-04T22:17:51.163Z,72.32
2019-02-04T22:20:20.285Z,71.94
2019-02-04T22:22:49.456Z,72.17
2019-02-04T22:25:20.286Z,72.11
2019-02-04T22:27:49.242Z,72.13
2019-02-04T22:30:20.083Z,72.21
2019-02-04T22:32:49.328Z,72.38
2019-02-04T22:35:18.203Z,72.68
2019-02-04T22:37:47.256Z,72.58
2019-02-04T22:40:18.500Z,72.79
2019-02-04T22:42:47.781Z,73.55
2019-02-04T22:45:16.955Z,73.87
2019-02-04T22:47:46.393Z,74.61
2019-02-04T22:50:20.496Z,74.85
2019-02-04T22:52:49.479Z,75.33
2019-02-04T22:55:18.973Z,75.16
2019-02-04T22:57:48.189Z,75.52
2019-02-04T23:00:44.999Z,75.63
2019-02-04T23:03:15.905Z,76.11
2019-02-04T23:05:45.384Z,76.39
2019-02-04T23:08:14.663Z,76.42
2019-02-04T23:10:43.589Z,76.78
2019-02-04T23:13:12.432Z,76.87
2019-02-04T23:15:41.687Z,76.94
2019-02-04T23:18:11.109Z,77.13
2019-02-04T23:20:40.238Z,77.89
2019-02-04T23:23:09.213Z,78.16
2019-02-04T23:25:43.514Z,78.34
2019-02-04T23:28:08.841Z,78.71
2019-02-04T23:30:38.055Z,79.28
2019-02-04T23:33:10.549Z,79.74
2019-02-04T23:35:39.529Z,80.34
2019-02-04T23:38:08.580Z,80.91
2019-02-04T23:40:37.367Z,81.24
2019-02-04T23:43:06.317Z,81.97
2019-02-04T23:45:35.538Z,81.90
2019-02-04T23:48:05.371Z,82.02
2019-02-04T23:50:34.673Z,82.53
2019-02-04T23:53:03.765Z,82.40
2019-02-04T23:55:32.869Z,82.10
2019-02-04T23:58:02.072Z,81.85
